createdAt,value
2016-06-15T00:00:43.487Z,0
2016-06-15T00:01:43.491Z,0
2016-06-15T00:02:43.525Z,0
2016-06-15T00:03:43.528Z,0
2016-06-15T00:04:44.094Z,0
2016-06-15T00:05:43.550Z,0
2016-06-15T00:06:43.537Z,0
2016-06-15T00:07:43.571Z,0
2016-06-15T00:08:43.574Z,0
2016-06-15T00:09:43.593Z,0
2016-06-15T00:10:43.441Z,0
2016-06-15T00:11:43.599Z,0
2016-06-15T00:12:43.634Z,0
2016-06-15T00:13:43.480Z,0
2016-06-15T00:14:43.656Z,0
2016-06-15T00:15:43.643Z,0
2016-06-15T00:16:43.631Z,0
2016-06-15T00:17:43.681Z,0
2016-06-15T00:18:43.699Z,0
2016-06-15T00:19:43.780Z,0
2016-06-15T00:20:43.705Z,0
2016-06-15T00:21:43.725Z,0
2016-06-15T00:22:43.711Z,0
2016-06-15T00:23:43.762Z,0
2016-06-15T00:24:43.748Z,0
2016-06-15T00:25:43.768Z,0
2016-06-15T00:26:43.754Z,0
2016-06-15T00:27:43.790Z,0
2016-06-15T00:28:43.776Z,0
2016-06-15T00:29:43.811Z,0
2016-06-15T00:30:43.798Z,0
2016-06-15T00:31:43.692Z,0
2016-06-15T00:32:43.836Z,0
2016-06-15T00:33:43.839Z,0
2016-06-15T00:34:43.701Z,0
2016-06-15T00:35:43.876Z,0
2016-06-15T00:36:43.708Z,0
2016-06-15T00:37:43.867Z,0
2016-06-15T00:38:43.885Z,0
2016-06-15T00:39:43.936Z,0
2016-06-15T00:40:43.752Z,0
2016-06-15T00:41:43.957Z,0
2016-06-15T00:42:43.945Z,0
2016-06-15T00:43:43.807Z,0
2016-06-15T00:44:43.951Z,0
2016-06-15T00:45:43.985Z,0
2016-06-15T00:46:43.973Z,0
2016-06-15T00:47:44.007Z,0
2016-06-15T00:48:44.010Z,0
2016-06-15T00:49:44.029Z,0
2016-06-15T00:50:43.782Z,0
2016-06-15T00:51:43.926Z,0
2016-06-15T00:52:44.053Z,0
2016-06-15T00:53:44.088Z,0
2016-06-15T00:54:44.076Z,0
2016-06-15T00:55:44.079Z,0
2016-06-15T00:56:44.097Z,0
2016-06-15T00:57:44.085Z,0
2016-06-15T00:58:44.150Z,0
2016-06-15T00:59:44.189Z,0
2016-06-15T01:00:44.245Z,0
2016-06-15T01:01:44.284Z,0
2016-06-15T01:02:44.338Z,0
2016-06-15T01:03:44.375Z,0
2016-06-15T01:04:44.953Z,0
2016-06-15T01:05:44.782Z,0
2016-06-15T01:06:44.439Z,0
2016-06-15T01:07:44.439Z,0
2016-06-15T01:08:44.479Z,0
2016-06-15T01:09:44.504Z,0
2016-06-15T01:10:44.511Z,0
2016-06-15T01:11:44.520Z,0
2016-06-15T01:12:44.558Z,0
2016-06-15T01:13:44.517Z,0
2016-06-15T01:14:44.568Z,0
2016-06-15T01:15:44.557Z,0
2016-06-15T01:16:44.453Z,0
2016-06-15T01:17:44.629Z,0
2016-06-15T01:18:44.618Z,0
2016-06-15T01:19:44.871Z,0
2016-06-15T01:20:44.375Z,0
2016-06-15T01:21:44.676Z,0
2016-06-15T01:22:44.665Z,0
2016-06-15T01:23:44.683Z,0
2016-06-15T01:24:44.671Z,0
2016-06-15T01:25:44.674Z,0
2016-06-15T01:26:44.739Z,0
2016-06-15T01:27:44.712Z,0
2016-06-15T01:28:44.729Z,0
2016-06-15T01:29:44.577Z,0
2016-06-15T01:30:44.767Z,0
2016-06-15T01:31:44.755Z,0
2016-06-15T01:32:44.788Z,0
2016-06-15T01:33:44.792Z,0
2016-06-15T01:34:45.544Z,0
2016-06-15T01:35:45.517Z,0
2016-06-15T01:36:44.816Z,0
2016-06-15T01:37:44.820Z,0
2016-06-15T01:38:44.854Z,0
2016-06-15T01:39:44.701Z,0
2016-06-15T01:40:44.845Z,0
2016-06-15T01:41:44.879Z,0
2016-06-15T01:42:44.866Z,0
2016-06-15T01:43:44.900Z,0
2016-06-15T01:44:44.904Z,0
2016-06-15T01:45:44.922Z,0
2016-06-15T01:46:44.909Z,0
2016-06-15T01:47:44.787Z,0
2016-06-15T01:48:44.932Z,0
2016-06-15T01:49:44.951Z,0
2016-06-15T01:50:45.329Z,0
2016-06-15T01:51:45.191Z,0
2016-06-15T01:52:44.975Z,0
2016-06-15T01:53:44.994Z,0
2016-06-15T01:54:45.044Z,0
2016-06-15T01:55:44.875Z,0
2016-06-15T01:56:45.019Z,0
2016-06-15T01:57:45.037Z,0
2016-06-15T01:58:44.884Z,0
2016-06-15T01:59:45.075Z,0
2016-06-15T02:00:45.078Z,0
2016-06-15T02:01:45.097Z,0
2016-06-15T02:02:45.084Z,0
2016-06-15T02:03:45.119Z,0
2016-06-15T02:04:45.090Z,0
2016-06-15T02:05:45.250Z,0
2016-06-15T02:06:45.128Z,0
2016-06-15T02:07:45.162Z,0
2016-06-15T02:08:45.181Z,0
2016-06-15T02:09:45.168Z,0
2016-06-15T02:10:45.171Z,0
2016-06-15T02:11:45.191Z,0
2016-06-15T02:12:45.194Z,0
2016-06-15T02:13:45.212Z,0
2016-06-15T02:14:45.231Z,0
2016-06-15T02:15:45.218Z,0
2016-06-15T02:16:45.237Z,0
2016-06-15T02:17:45.255Z,0
2016-06-15T02:18:45.258Z,0
2016-06-15T02:19:45.277Z,0
2016-06-15T02:20:45.108Z,0
2016-06-15T02:21:45.330Z,0
2016-06-15T02:22:45.318Z,0
2016-06-15T02:23:45.336Z,0
2016-06-15T02:24:45.184Z,0
2016-06-15T02:25:45.326Z,0
2016-06-15T02:26:45.329Z,0
2016-06-15T02:27:45.207Z,0
2016-06-15T02:28:45.227Z,0
2016-06-15T02:29:45.385Z,0
2016-06-15T02:30:45.436Z,0
2016-06-15T02:31:45.407Z,0
2016-06-15T02:32:45.426Z,0
2016-06-15T02:33:45.414Z,0
2016-06-15T02:34:45.448Z,0
2016-06-15T02:35:46.248Z,0
2016-06-15T02:36:45.485Z,0
2016-06-15T02:37:45.457Z,0
2016-06-15T02:38:45.491Z,0
2016-06-15T02:39:45.479Z,0
2016-06-15T02:40:45.325Z,0
2016-06-15T02:41:45.517Z,0
2016-06-15T02:42:45.535Z,0
2016-06-15T02:43:45.523Z,0
2016-06-15T02:44:45.573Z,0
2016-06-15T02:45:45.560Z,0
2016-06-15T02:46:45.594Z,0
2016-06-15T02:47:45.551Z,0
2016-06-15T02:48:45.600Z,0
2016-06-15T02:49:45.572Z,0
2016-06-15T02:50:47.217Z,0
2016-06-15T02:51:45.656Z,0
2016-06-15T02:52:45.645Z,0
2016-06-15T02:53:45.459Z,0
2016-06-15T02:54:45.651Z,0
2016-06-15T02:55:45.497Z,0
2016-06-15T02:56:45.672Z,0
2016-06-15T02:57:45.534Z,0
2016-06-15T02:58:45.694Z,0
2016-06-15T02:59:45.712Z,0
2016-06-15T03:00:45.700Z,0
2016-06-15T03:01:45.719Z,0
2016-06-15T03:02:45.723Z,0
2016-06-15T03:03:45.771Z,0
2016-06-15T03:04:45.759Z,0
2016-06-15T03:05:46.074Z,0
2016-06-15T03:06:45.781Z,0
2016-06-15T03:07:45.800Z,0
2016-06-15T03:08:45.787Z,0
2016-06-15T03:09:45.822Z,0
2016-06-15T03:10:45.824Z,0
2016-06-15T03:11:45.828Z,0
2016-06-15T03:12:45.846Z,0
2016-06-15T03:13:45.849Z,0
2016-06-15T03:14:45.868Z,0
2016-06-15T03:15:45.887Z,0
2016-06-15T03:16:45.874Z,0
2016-06-15T03:17:45.894Z,0
2016-06-15T03:18:45.911Z,0
2016-06-15T03:19:45.945Z,0
2016-06-15T03:20:46.730Z,0
2016-06-15T03:21:45.936Z,0
2016-06-15T03:22:45.986Z,0
2016-06-15T03:23:45.943Z,0
2016-06-15T03:24:45.976Z,0
2016-06-15T03:25:45.996Z,0
2016-06-15T03:26:45.999Z,0
2016-06-15T03:27:46.002Z,0
2016-06-15T03:28:46.020Z,0
2016-06-15T03:29:46.023Z,0
2016-06-15T03:30:46.042Z,0
2016-06-15T03:31:46.061Z,0
2016-06-15T03:32:46.095Z,0
2016-06-15T03:33:46.082Z,0
2016-06-15T03:34:46.102Z,0
2016-06-15T03:35:45.838Z,0
2016-06-15T03:36:46.108Z,0
2016-06-15T03:37:46.111Z,0
2016-06-15T03:38:46.129Z,0
2016-06-15T03:39:46.132Z,0
2016-06-15T03:40:46.167Z,0
2016-06-15T03:41:46.013Z,0
2016-06-15T03:42:46.173Z,0
2016-06-15T03:43:46.160Z,0
2016-06-15T03:44:46.210Z,0
2016-06-15T03:45:46.214Z,0
2016-06-15T03:46:46.216Z,0
2016-06-15T03:47:46.251Z,0
2016-06-15T03:48:46.238Z,0
2016-06-15T03:49:46.257Z,0
2016-06-15T03:50:46.634Z,0
2016-06-15T03:51:46.326Z,0
2016-06-15T03:52:46.296Z,0
2016-06-15T03:53:46.285Z,0
2016-06-15T03:54:46.287Z,0
2016-06-15T03:55:46.338Z,0
2016-06-15T03:56:46.309Z,0
2016-06-15T03:57:46.328Z,0
2016-06-15T03:58:46.348Z,0
2016-06-15T03:59:46.365Z,0
2016-06-15T04:00:46.337Z,0
2016-06-15T04:01:46.388Z,0
2016-06-15T04:02:46.406Z,0
2016-06-15T04:03:46.410Z,0
2016-06-15T04:04:46.412Z,0
2016-06-15T04:05:46.869Z,0
2016-06-15T04:06:46.403Z,0
2016-06-15T04:07:46.453Z,0
2016-06-15T04:08:46.315Z,0
2016-06-15T04:09:46.490Z,0
2016-06-15T04:10:46.462Z,0
2016-06-15T04:11:46.496Z,0
2016-06-15T04:12:46.468Z,0
2016-06-15T04:13:46.502Z,0
2016-06-15T04:14:46.505Z,0
2016-06-15T04:15:46.525Z,0
2016-06-15T04:16:46.542Z,5
2016-06-15T04:17:46.578Z,5
2016-06-15T04:18:46.565Z,5
2016-06-15T04:19:46.568Z,5
2016-06-15T04:20:46.602Z,5
2016-06-15T04:21:46.433Z,5
2016-06-15T04:22:46.624Z,5
2016-06-15T04:23:46.596Z,5
2016-06-15T04:24:46.615Z,5
2016-06-15T04:25:46.633Z,5
2016-06-15T04:26:46.637Z,5
2016-06-15T04:27:46.654Z,5
2016-06-15T04:28:46.658Z,5
2016-06-15T04:29:46.536Z,5
2016-06-15T04:30:46.680Z,5
2016-06-15T04:31:46.558Z,5
2016-06-15T04:32:46.717Z,5
2016-06-15T04:33:46.548Z,5
2016-06-15T04:34:46.723Z,5
2016-06-15T04:35:46.961Z,5
2016-06-15T04:36:46.729Z,5
2016-06-15T04:37:46.592Z,5
2016-06-15T04:38:46.782Z,5
2016-06-15T04:39:46.754Z,5
2016-06-15T04:40:46.820Z,5
2016-06-15T04:41:46.791Z,5
2016-06-15T04:42:46.810Z,5
2016-06-15T04:43:46.828Z,5
2016-06-15T04:44:46.847Z,5
2016-06-15T04:45:46.678Z,5
2016-06-15T04:46:46.854Z,5
2016-06-15T04:47:46.856Z,5
2016-06-15T04:48:46.860Z,5
2016-06-15T04:49:46.894Z,5
2016-06-15T04:50:47.366Z,5
2016-06-15T04:51:46.822Z,5
2016-06-15T04:52:46.935Z,5
2016-06-15T04:53:46.953Z,10
2016-06-15T04:54:46.956Z,10
2016-06-15T04:55:46.944Z,10
2016-06-15T04:56:46.822Z,10
2016-06-15T04:57:46.951Z,10
2016-06-15T04:58:46.984Z,10
2016-06-15T04:59:46.988Z,10
2016-06-15T05:00:47.021Z,10
2016-06-15T05:01:46.838Z,10
2016-06-15T05:02:47.044Z,10
2016-06-15T05:03:47.015Z,10
2016-06-15T05:04:47.065Z,10
2016-06-15T05:05:47.709Z,10
2016-06-15T05:06:47.993Z,10
2016-06-15T05:07:47.059Z,10
2016-06-15T05:08:47.094Z,10
2016-06-15T05:09:47.112Z,10
2016-06-15T05:10:47.131Z,10
2016-06-15T05:11:47.118Z,10
2016-06-15T05:12:47.122Z,10
2016-06-15T05:13:47.140Z,10
2016-06-15T05:14:47.159Z,10
2016-06-15T05:15:47.037Z,10
2016-06-15T05:16:47.196Z,10
2016-06-15T05:17:47.199Z,10
2016-06-15T05:18:47.186Z,10
2016-06-15T05:19:47.237Z,10
2016-06-15T05:20:47.427Z,10
2016-06-15T05:21:47.243Z,10
2016-06-15T05:22:47.230Z,10
2016-06-15T05:23:47.109Z,10
2016-06-15T05:24:47.267Z,10
2016-06-15T05:25:47.255Z,10
2016-06-15T05:26:47.304Z,10
2016-06-15T05:27:47.277Z,10
2016-06-15T05:28:47.139Z,10
2016-06-15T05:29:47.158Z,10
2016-06-15T05:30:47.333Z,10
2016-06-15T05:31:47.180Z,10
2016-06-15T05:32:47.370Z,10
2016-06-15T05:33:47.357Z,10
2016-06-15T05:34:47.220Z,10
2016-06-15T05:35:47.364Z,10
2016-06-15T05:36:48.070Z,10
2016-06-15T05:37:47.401Z,10
2016-06-15T05:38:47.435Z,10
2016-06-15T05:39:47.438Z,10
2016-06-15T05:40:47.425Z,10
2016-06-15T05:41:47.461Z,10
2016-06-15T05:42:47.464Z,10
2016-06-15T05:43:47.294Z,10
2016-06-15T05:44:47.345Z,10
2016-06-15T05:45:47.488Z,10
2016-06-15T05:46:47.523Z,15
2016-06-15T05:47:47.494Z,10
2016-06-15T05:48:47.373Z,15
2016-06-15T05:49:47.360Z,15
2016-06-15T05:50:47.566Z,15
2016-06-15T05:51:48.256Z,15
2016-06-15T05:52:47.557Z,15
2016-06-15T05:53:47.575Z,15
2016-06-15T05:54:47.610Z,15
2016-06-15T05:55:47.471Z,15
2016-06-15T05:56:47.600Z,15
2016-06-15T05:57:47.603Z,15
2016-06-15T05:58:47.606Z,15
2016-06-15T05:59:47.656Z,10
2016-06-15T06:00:47.628Z,10
2016-06-15T06:01:47.662Z,10
2016-06-15T06:02:47.682Z,10
2016-06-15T06:03:47.699Z,10
2016-06-15T06:04:47.657Z,10
2016-06-15T06:05:47.705Z,10
2016-06-15T06:06:48.552Z,10
2016-06-15T06:07:47.744Z,10
2016-06-15T06:08:47.590Z,10
2016-06-15T06:09:47.749Z,10
2016-06-15T06:10:47.596Z,10
2016-06-15T06:11:47.771Z,10
2016-06-15T06:12:47.774Z,10
2016-06-15T06:13:47.778Z,10
2016-06-15T06:14:47.780Z,10
2016-06-15T06:15:47.831Z,10
2016-06-15T06:16:47.818Z,10
2016-06-15T06:17:47.853Z,10
2016-06-15T06:18:47.839Z,10
2016-06-15T06:19:47.859Z,15
2016-06-15T06:20:47.877Z,15
2016-06-15T06:21:48.130Z,15
2016-06-15T06:22:47.883Z,15
2016-06-15T06:23:47.902Z,15
2016-06-15T06:24:47.905Z,15
2016-06-15T06:25:47.908Z,15
2016-06-15T06:26:47.614Z,15
2016-06-15T06:27:47.945Z,15
2016-06-15T06:28:47.964Z,15
2016-06-15T06:29:47.968Z,15
2016-06-15T06:30:47.986Z,15
2016-06-15T06:31:47.958Z,15
2016-06-15T06:32:48.007Z,15
2016-06-15T06:33:48.011Z,15
2016-06-15T06:34:48.014Z,15
2016-06-15T06:35:48.048Z,15
2016-06-15T06:36:47.676Z,15
2016-06-15T06:37:48.038Z,15
2016-06-15T06:38:48.057Z,15
2016-06-15T06:39:48.092Z,15
2016-06-15T06:40:48.095Z,15
2016-06-15T06:41:48.098Z,15
2016-06-15T06:42:47.788Z,15
2016-06-15T06:43:48.197Z,15
2016-06-15T06:44:48.732Z,15
2016-06-15T06:45:48.814Z,15
2016-06-15T06:46:48.160Z,15
2016-06-15T06:47:48.179Z,15
2016-06-15T06:48:48.166Z,15
2016-06-15T06:49:48.185Z,15
2016-06-15T06:50:48.188Z,15
2016-06-15T06:51:48.410Z,15
2016-06-15T06:52:48.257Z,15
2016-06-15T06:53:48.213Z,20
2016-06-15T06:54:48.231Z,20
2016-06-15T06:55:48.251Z,20
2016-06-15T06:56:48.253Z,20
2016-06-15T06:57:48.273Z,20
2016-06-15T06:58:48.290Z,20
2016-06-15T06:59:48.294Z,20
2016-06-15T07:00:48.282Z,20
2016-06-15T07:01:48.316Z,20
2016-06-15T07:02:48.303Z,20
2016-06-15T07:03:48.181Z,20
2016-06-15T07:04:48.341Z,20
2016-06-15T07:05:49.328Z,20
2016-06-15T07:06:48.050Z,20
2016-06-15T07:07:48.381Z,20
2016-06-15T07:08:48.384Z,20
2016-06-15T07:09:48.387Z,20
2016-06-15T07:10:48.859Z,20
2016-06-15T07:11:48.441Z,20
2016-06-15T07:12:48.443Z,20
2016-06-15T07:13:48.431Z,20
2016-06-15T07:14:48.449Z,20
2016-06-15T07:15:48.453Z,20
2016-06-15T07:16:48.471Z,25
2016-06-15T07:17:48.474Z,25
2016-06-15T07:18:48.509Z,20
2016-06-15T07:19:48.480Z,15
2016-06-15T07:20:48.515Z,25
2016-06-15T07:21:48.800Z,25
2016-06-15T07:22:48.380Z,20
2016-06-15T07:23:48.524Z,20
2016-06-15T07:24:48.558Z,20
2016-06-15T07:25:48.577Z,25
2016-06-15T07:26:48.564Z,25
2016-06-15T07:27:48.599Z,30
2016-06-15T07:28:48.618Z,30
2016-06-15T07:29:48.605Z,30
2016-06-15T07:30:48.608Z,30
2016-06-15T07:31:48.627Z,30
2016-06-15T07:32:48.645Z,30
2016-06-15T07:33:48.664Z,30
2016-06-15T07:34:48.683Z,30
2016-06-15T07:35:49.420Z,30
2016-06-15T07:36:48.939Z,30
2016-06-15T07:37:48.395Z,30
2016-06-15T07:38:48.710Z,30
2016-06-15T07:39:48.698Z,30
2016-06-15T07:40:50.139Z,30
2016-06-15T07:41:48.736Z,30
2016-06-15T07:42:48.753Z,30
2016-06-15T07:43:48.742Z,30
2016-06-15T07:44:48.760Z,30
2016-06-15T07:45:48.638Z,30
2016-06-15T07:46:48.813Z,30
2016-06-15T07:47:48.801Z,25
2016-06-15T07:48:48.819Z,35
2016-06-15T07:49:48.854Z,35
2016-06-15T07:50:48.841Z,40
2016-06-15T07:51:48.828Z,40
2016-06-15T07:52:49.114Z,35
2016-06-15T07:53:48.834Z,35
2016-06-15T07:54:48.869Z,35
2016-06-15T07:55:50.904Z,35
2016-06-15T07:56:48.922Z,35
2016-06-15T07:57:48.925Z,35
2016-06-15T07:58:48.912Z,35
2016-06-15T07:59:48.916Z,30
2016-06-15T08:00:49.700Z,30
2016-06-15T08:01:48.937Z,40
2016-06-15T08:02:48.956Z,40
2016-06-15T08:03:48.990Z,40
2016-06-15T08:04:48.978Z,35
2016-06-15T08:05:49.074Z,30
2016-06-15T08:06:49.188Z,30
2016-06-15T08:07:49.018Z,40
2016-06-15T08:08:49.006Z,40
2016-06-15T08:09:49.041Z,40
2016-06-15T08:10:49.199Z,45
2016-06-15T08:11:49.062Z,45
2016-06-15T08:12:49.049Z,35
2016-06-15T08:13:49.099Z,30
2016-06-15T08:14:49.087Z,40
2016-06-15T08:15:49.746Z,40
2016-06-15T08:16:49.125Z,40
2016-06-15T08:17:49.127Z,40
2016-06-15T08:18:49.161Z,40
2016-06-15T08:19:49.149Z,40
2016-06-15T08:20:52.620Z,40
2016-06-15T08:21:50.499Z,45
2016-06-15T08:22:52.564Z,45
2016-06-15T08:23:50.834Z,40
2016-06-15T08:24:49.180Z,35
2016-06-15T08:25:49.215Z,50
2016-06-15T08:26:49.202Z,50
2016-06-15T08:27:49.236Z,50
2016-06-15T08:28:48.911Z,55
2016-06-15T08:29:49.086Z,55
2016-06-15T08:30:50.480Z,45
2016-06-15T08:31:49.279Z,60
2016-06-15T08:32:49.283Z,60
2016-06-15T08:33:49.285Z,60
2016-06-15T08:34:49.289Z,60
2016-06-15T08:35:49.355Z,60
2016-06-15T08:36:49.670Z,65
2016-06-15T08:37:49.330Z,65
2016-06-15T08:38:49.347Z,60
2016-06-15T08:39:49.336Z,55
2016-06-15T08:40:49.729Z,50
2016-06-15T08:41:49.373Z,40
2016-06-15T08:42:49.345Z,35
2016-06-15T08:43:49.410Z,35
2016-06-15T08:44:49.382Z,30
2016-06-15T08:45:50.198Z,30
2016-06-15T08:46:49.404Z,30
2016-06-15T08:47:49.283Z,35
2016-06-15T08:48:49.425Z,30
2016-06-15T08:49:49.303Z,30
2016-06-15T08:50:51.573Z,35
2016-06-15T08:51:49.403Z,40
2016-06-15T08:52:49.594Z,45
2016-06-15T08:53:49.331Z,45
2016-06-15T08:54:49.522Z,45
2016-06-15T08:55:51.041Z,50
2016-06-15T08:56:49.528Z,50
2016-06-15T08:57:49.531Z,30
2016-06-15T08:58:49.566Z,50
2016-06-15T08:59:49.553Z,50
2016-06-15T09:00:50.712Z,50
2016-06-15T09:01:49.591Z,45
2016-06-15T09:02:49.610Z,45
2016-06-15T09:03:49.582Z,45
2016-06-15T09:04:49.616Z,45
2016-06-15T09:05:49.447Z,45
2016-06-15T09:06:49.669Z,45
2016-06-15T09:07:49.640Z,45
2016-06-15T09:08:49.660Z,50
2016-06-15T09:09:49.662Z,50
2016-06-15T09:10:49.681Z,40
2016-06-15T09:11:49.669Z,50
2016-06-15T09:12:49.728Z,50
2016-06-15T09:13:49.694Z,50
2016-06-15T09:14:49.717Z,50
2016-06-15T09:16:13.268Z,50
2016-06-15T09:16:49.802Z,50
2016-06-15T09:17:49.744Z,50
2016-06-15T09:18:49.605Z,50
2016-06-15T09:19:49.780Z,50
2016-06-15T09:20:49.768Z,50
2016-06-15T09:21:49.786Z,50
2016-06-15T09:22:50.149Z,50
2016-06-15T09:23:49.823Z,50
2016-06-15T09:24:49.827Z,55
2016-06-15T09:25:49.860Z,55
2016-06-15T09:26:50.052Z,35
2016-06-15T09:27:49.852Z,35
2016-06-15T09:28:49.855Z,50
2016-06-15T09:29:49.868Z,55
2016-06-15T09:30:49.714Z,60
2016-06-15T09:31:49.890Z,60
2016-06-15T09:32:49.909Z,60
2016-06-15T09:33:49.895Z,40
2016-06-15T09:34:49.946Z,60
2016-06-15T09:35:49.934Z,40
2016-06-15T09:36:50.545Z,45
2016-06-15T09:37:50.298Z,40
2016-06-15T09:38:49.973Z,40
2016-06-15T09:39:49.992Z,40
2016-06-15T09:40:50.011Z,45
2016-06-15T09:41:50.014Z,55
2016-06-15T09:42:49.986Z,55
2016-06-15T09:43:50.020Z,60
2016-06-15T09:44:50.024Z,60
2016-06-15T09:45:50.026Z,55
2016-06-15T09:46:50.045Z,50
2016-06-15T09:47:50.063Z,45
2016-06-15T09:48:50.067Z,40
2016-06-15T09:49:49.944Z,30
2016-06-15T09:50:49.808Z,30
2016-06-15T09:51:50.592Z,30
2016-06-15T09:52:50.564Z,30
2016-06-15T09:53:50.175Z,30
2016-06-15T09:54:50.117Z,30
2016-06-15T09:55:50.166Z,35
2016-06-15T09:56:50.154Z,30
2016-06-15T09:57:50.157Z,40
2016-06-15T09:58:50.161Z,45
2016-06-15T09:59:50.210Z,50
2016-06-15T10:00:50.181Z,55
2016-06-15T10:01:50.059Z,65
2016-06-15T10:02:50.187Z,80
2016-06-15T10:03:50.084Z,80
2016-06-15T10:04:50.268Z,70
2016-06-15T10:05:50.374Z,65
2016-06-15T10:06:50.386Z,60
2016-06-15T10:07:50.538Z,60
2016-06-15T10:08:50.475Z,55
2016-06-15T10:09:50.509Z,50
2016-06-15T10:10:50.368Z,50
2016-06-15T10:11:50.558Z,55
2016-06-15T10:12:50.576Z,55
2016-06-15T10:13:50.464Z,70
2016-06-15T10:14:50.613Z,45
2016-06-15T10:15:50.652Z,65
2016-06-15T10:16:50.630Z,65
2016-06-15T10:17:59.575Z,55
2016-06-15T10:18:50.669Z,35
2016-06-15T10:19:50.692Z,40
2016-06-15T10:20:50.681Z,60
2016-06-15T10:21:50.561Z,60
2016-06-15T10:22:51.134Z,50
2016-06-15T10:23:50.727Z,55
2016-06-15T10:24:50.763Z,85
2016-06-15T10:25:50.751Z,80
2016-06-15T10:26:50.771Z,75
2016-06-15T10:27:50.788Z,70
2016-06-15T10:28:50.777Z,60
2016-06-15T10:29:50.765Z,60
2016-06-15T10:30:50.643Z,50
2016-06-15T10:31:50.833Z,40
2016-06-15T10:32:50.806Z,40
2016-06-15T10:33:50.856Z,40
2016-06-15T10:34:50.688Z,40
2016-06-15T10:36:01.725Z,40
2016-06-15T10:37:00.120Z,45
2016-06-15T10:38:23.325Z,45
2016-06-15T10:39:23.297Z,40
2016-06-15T10:40:37.207Z,35
2016-06-15T10:41:42.991Z,35
2016-06-15T10:42:26.573Z,35
2016-06-15T10:43:04.310Z,35
2016-06-15T10:43:55.529Z,35
2016-06-15T10:44:55.532Z,35
2016-06-15T10:46:29.570Z,45
2016-06-15T10:48:03.806Z,55
2016-06-15T10:49:10.110Z,60
2016-06-15T10:50:14.926Z,65
2016-06-15T10:51:00.566Z,60
2016-06-15T10:51:53.397Z,60
2016-06-15T10:53:15.091Z,50
2016-06-15T10:54:44.578Z,50
2016-06-15T10:55:54.878Z,40
2016-06-15T10:56:07.347Z,40
2016-06-15T10:57:07.366Z,35
2016-06-15T10:58:07.369Z,35
2016-06-15T10:59:07.372Z,35
2016-06-15T11:00:07.391Z,35
2016-06-15T11:01:07.363Z,30
2016-06-15T11:02:07.257Z,30
2016-06-15T11:03:07.416Z,30
2016-06-15T11:04:07.434Z,30
2016-06-15T11:05:07.437Z,30
2016-06-15T11:06:07.144Z,25
2016-06-15T11:07:08.632Z,25
2016-06-15T11:08:07.759Z,30
2016-06-15T11:09:07.168Z,35
2016-06-15T11:10:07.516Z,35
2016-06-15T11:11:07.518Z,40
2016-06-15T11:12:07.366Z,45
2016-06-15T11:13:07.509Z,50
2016-06-15T11:14:07.528Z,70
2016-06-15T11:15:07.546Z,70
2016-06-15T11:16:07.393Z,50
2016-06-15T11:17:07.396Z,45
2016-06-15T11:18:07.587Z,45
2016-06-15T11:19:07.591Z,45
2016-06-15T11:20:07.624Z,45
2016-06-15T11:21:07.597Z,40
2016-06-15T11:22:07.819Z,40
2016-06-15T11:23:08.742Z,40
2016-06-15T11:24:07.652Z,35
2016-06-15T11:25:07.640Z,35
2016-06-15T11:26:07.673Z,30
2016-06-15T11:27:07.693Z,30
2016-06-15T11:28:07.680Z,30
2016-06-15T11:29:07.682Z,25
2016-06-15T11:30:07.702Z,25
2016-06-15T11:31:07.752Z,30
2016-06-15T11:32:07.739Z,30
2016-06-15T11:33:07.773Z,40
2016-06-15T11:34:07.730Z,45
2016-06-15T11:35:07.779Z,55
2016-06-15T11:36:07.612Z,70
2016-06-15T11:37:07.505Z,70
2016-06-15T11:38:08.288Z,80
2016-06-15T11:39:07.838Z,70
2016-06-15T11:40:07.810Z,80
2016-06-15T11:41:07.829Z,90
2016-06-15T11:42:07.833Z,90
2016-06-15T11:43:07.851Z,90
2016-06-15T11:44:07.870Z,75
2016-06-15T11:45:07.873Z,85
2016-06-15T11:46:07.892Z,80
2016-06-15T11:47:07.739Z,80
2016-06-15T11:48:07.929Z,75
2016-06-15T11:49:07.776Z,70
2016-06-15T11:50:07.920Z,50
2016-06-15T11:51:07.953Z,50
2016-06-15T11:52:08.426Z,80
2016-06-15T11:53:08.820Z,95
2016-06-15T11:54:07.979Z,60
2016-06-15T11:55:07.982Z,55
2016-06-15T11:56:08.031Z,50
2016-06-15T11:57:08.019Z,55
2016-06-15T11:58:08.038Z,60
2016-06-15T11:59:08.041Z,60
2016-06-15T12:00:08.045Z,70
2016-06-15T12:01:08.047Z,75
2016-06-15T12:02:07.910Z,95
2016-06-15T12:03:08.116Z,75
2016-06-15T12:04:07.791Z,105
2016-06-15T12:05:08.122Z,85
2016-06-15T12:06:08.109Z,80
2016-06-15T12:07:07.988Z,65
2016-06-15T12:08:08.615Z,60
2016-06-15T12:09:08.150Z,55
2016-06-15T12:10:08.184Z,30
2016-06-15T12:11:08.172Z,30
2016-06-15T12:12:08.065Z,30
2016-06-15T12:13:08.240Z,35
2016-06-15T12:14:08.228Z,40
2016-06-15T12:15:08.216Z,40
2016-06-15T12:16:08.235Z,50
2016-06-15T12:17:08.252Z,50
2016-06-15T12:18:08.240Z,65
2016-06-15T12:19:08.119Z,50
2016-06-15T12:20:08.293Z,40
2016-06-15T12:21:08.328Z,45
2016-06-15T12:22:08.299Z,50
2016-06-15T12:23:08.973Z,50
2016-06-15T12:24:08.305Z,50
2016-06-15T12:25:08.355Z,45
2016-06-15T12:26:08.343Z,45
2016-06-15T12:27:08.361Z,45
2016-06-15T12:28:08.349Z,45
2016-06-15T12:29:08.399Z,40
2016-06-15T12:30:08.387Z,40
2016-06-15T12:31:08.406Z,45
2016-06-15T12:32:08.455Z,45
2016-06-15T12:33:08.442Z,45
2016-06-15T12:34:08.429Z,50
2016-06-15T12:35:08.449Z,50
2016-06-15T12:36:08.311Z,45
2016-06-15T12:37:08.751Z,45
2016-06-15T12:38:08.786Z,50
2016-06-15T12:39:08.555Z,50
2016-06-15T12:40:08.495Z,55
2016-06-15T12:41:08.530Z,50
2016-06-15T12:42:08.501Z,65
2016-06-15T12:43:08.535Z,50
2016-06-15T12:44:08.538Z,50
2016-06-15T12:45:08.558Z,50
2016-06-15T12:46:08.561Z,50
2016-06-15T12:47:08.580Z,50
2016-06-15T12:48:08.598Z,50
2016-06-15T12:49:08.600Z,55
2016-06-15T12:50:08.620Z,60
2016-06-15T12:51:08.607Z,65
2016-06-15T12:52:08.626Z,70
2016-06-15T12:53:10.176Z,65
2016-06-15T12:54:08.663Z,65
2016-06-15T12:55:08.651Z,70
2016-06-15T12:56:08.544Z,75
2016-06-15T12:57:08.703Z,70
2016-06-15T12:58:08.722Z,75
2016-06-15T12:59:08.710Z,85
2016-06-15T13:00:08.729Z,85
2016-06-15T13:01:08.732Z,75
2016-06-15T13:02:08.735Z,70
2016-06-15T13:03:08.597Z,70
2016-06-15T13:04:08.757Z,70
2016-06-15T13:05:08.619Z,75
2016-06-15T13:06:08.794Z,65
2016-06-15T13:07:08.953Z,55
2016-06-15T13:08:09.331Z,35
2016-06-15T13:09:08.803Z,25
2016-06-15T13:10:08.854Z,50
2016-06-15T13:11:08.699Z,55
2016-06-15T13:12:08.562Z,40
2016-06-15T13:13:08.847Z,65
2016-06-15T13:14:08.927Z,75
2016-06-15T13:15:08.869Z,80
2016-06-15T13:16:08.872Z,85
2016-06-15T13:17:08.890Z,95
2016-06-15T13:18:08.925Z,90
2016-06-15T13:19:08.943Z,85
2016-06-15T13:20:08.790Z,80
2016-06-15T13:21:08.935Z,55
2016-06-15T13:22:08.780Z,55
2016-06-15T13:23:08.846Z,50
2016-06-15T13:24:08.990Z,45
2016-06-15T13:25:08.992Z,40
2016-06-15T13:26:09.012Z,40
2016-06-15T13:27:09.031Z,35
2016-06-15T13:28:08.877Z,25
2016-06-15T13:29:09.020Z,25
2016-06-15T13:30:09.071Z,20
2016-06-15T13:31:09.043Z,20
2016-06-15T13:32:09.061Z,20
2016-06-15T13:33:09.096Z,20
2016-06-15T13:34:09.114Z,25
2016-06-15T13:35:09.103Z,25
2016-06-15T13:36:09.120Z,35
2016-06-15T13:37:08.968Z,70
2016-06-15T13:38:09.127Z,70
2016-06-15T13:39:09.146Z,70
2016-06-15T13:40:09.007Z,70
2016-06-15T13:41:09.152Z,75
2016-06-15T13:42:09.186Z,70
2016-06-15T13:43:09.189Z,50
2016-06-15T13:44:09.223Z,35
2016-06-15T13:45:09.212Z,35
2016-06-15T13:46:09.261Z,35
2016-06-15T13:47:09.232Z,40
2016-06-15T13:48:09.236Z,45
2016-06-15T13:49:09.114Z,45
2016-06-15T13:50:08.977Z,50
2016-06-15T13:51:09.105Z,55
2016-06-15T13:52:09.310Z,50
2016-06-15T13:53:09.454Z,60
2016-06-15T13:54:09.348Z,65
2016-06-15T13:55:09.320Z,65
2016-06-15T13:56:09.354Z,55
2016-06-15T13:57:09.326Z,65
2016-06-15T13:58:09.376Z,50
2016-06-15T13:59:09.363Z,25
2016-06-15T14:00:09.413Z,35
2016-06-15T14:01:09.385Z,50
2016-06-15T14:02:09.435Z,40
2016-06-15T14:03:09.392Z,60
2016-06-15T14:04:09.456Z,65
2016-06-15T14:05:09.429Z,40
2016-06-15T14:06:09.448Z,40
2016-06-15T14:07:09.466Z,35
2016-06-15T14:08:09.735Z,35
2016-06-15T14:09:09.472Z,60
2016-06-15T14:10:09.475Z,70
2016-06-15T14:11:09.338Z,75
2016-06-15T14:12:09.497Z,70
2016-06-15T14:13:09.548Z,40
2016-06-15T14:14:09.550Z,50
2016-06-15T14:15:09.538Z,55
2016-06-15T14:16:09.557Z,70
2016-06-15T14:17:09.560Z,65
2016-06-15T14:18:09.578Z,70
2016-06-15T14:19:09.441Z,60
2016-06-15T14:20:09.678Z,70
2016-06-15T14:21:09.619Z,65
2016-06-15T14:22:09.637Z,65
2016-06-15T14:23:09.953Z,65
2016-06-15T14:24:09.690Z,60
2016-06-15T14:25:09.677Z,60
2016-06-15T14:26:09.666Z,55
2016-06-15T14:27:09.730Z,60
2016-06-15T14:28:09.686Z,60